createdAt,value
2018-09-25T00:01:10.318Z,12.58
2018-09-25T00:03:44.158Z,12.56
2018-09-25T00:06:17.960Z,12.55
2018-09-25T00:08:51.790Z,12.53
2018-09-25T00:11:25.547Z,12.52
2018-09-25T00:13:59.379Z,12.51
2018-09-25T00:16:33.023Z,12.47
2018-09-25T00:19:06.843Z,12.45
2018-09-25T00:21:40.640Z,12.41
2018-09-25T00:24:14.276Z,12.42
2018-09-25T00:26:47.925Z,12.38
2018-09-25T00:29:21.762Z,12.35
2018-09-25T00:31:55.601Z,12.30
2018-09-25T00:34:29.267Z,12.25
2018-09-25T00:37:02.978Z,12.19
2018-09-25T00:39:36.847Z,12.15
2018-09-25T00:42:10.750Z,12.13
2018-09-25T00:44:44.391Z,12.11
2018-09-25T00:47:18.216Z,12.10
2018-09-25T00:49:51.912Z,12.07
2018-09-25T00:52:25.638Z,12.06
2018-09-25T00:54:59.419Z,12.06
2018-09-25T00:57:33.349Z,12.06
2018-09-25T01:00:07.139Z,12.05
2018-09-25T01:02:40.904Z,12.04
2018-09-25T01:05:14.792Z,12.03
2018-09-25T01:07:48.707Z,12.02
2018-09-25T01:10:22.450Z,11.98
2018-09-25T01:12:56.097Z,11.98
2018-09-25T01:15:29.853Z,11.99
2018-09-25T01:18:03.583Z,11.96
2018-09-25T01:20:37.273Z,11.94
2018-09-25T01:23:11.095Z,11.93
2018-09-25T01:25:44.971Z,11.91
2018-09-25T01:28:18.731Z,11.90
2018-09-25T01:30:52.422Z,11.88
2018-09-25T01:33:26.254Z,11.86
2018-09-25T01:36:00.148Z,11.84
2018-09-25T01:38:34.008Z,11.82
2018-09-25T01:41:07.835Z,11.79
2018-09-25T01:43:41.621Z,11.78
2018-09-25T01:46:15.442Z,11.76
2018-09-25T01:48:49.260Z,11.74
2018-09-25T01:51:23.021Z,11.72
2018-09-25T01:53:56.960Z,11.67
2018-09-25T01:56:30.858Z,11.68
2018-09-25T01:59:04.594Z,11.66
2018-09-25T02:01:38.382Z,11.64
2018-09-25T02:04:12.404Z,11.64
2018-09-25T02:06:46.255Z,11.63
2018-09-25T02:09:20.076Z,11.61
2018-09-25T02:11:53.852Z,11.57
2018-09-25T02:14:27.640Z,11.56
2018-09-25T02:17:01.532Z,11.55
2018-09-25T02:19:35.341Z,11.52
2018-09-25T02:22:09.056Z,11.52
2018-09-25T02:24:43.007Z,11.51
2018-09-25T02:27:16.813Z,11.50
2018-09-25T02:29:50.639Z,11.49
2018-09-25T02:32:24.552Z,11.47
2018-09-25T02:34:58.564Z,11.45
2018-09-25T02:37:32.368Z,11.42
2018-09-25T02:40:06.167Z,11.39
2018-09-25T02:42:39.860Z,11.35
2018-09-25T02:45:13.679Z,11.32
2018-09-25T02:47:47.355Z,11.30
2018-09-25T02:50:21.047Z,11.30
2018-09-25T02:52:54.688Z,11.28
2018-09-25T02:55:28.501Z,11.24
2018-09-25T02:58:02.182Z,11.20
2018-09-25T03:00:36.032Z,11.14
2018-09-25T03:03:09.696Z,11.08
2018-09-25T03:05:43.492Z,11.03
2018-09-25T03:08:17.166Z,11.00
2018-09-25T03:10:51.038Z,10.97
2018-09-25T03:13:24.912Z,10.98
2018-09-25T03:15:58.849Z,10.97
2018-09-25T03:18:32.766Z,10.96
2018-09-25T03:21:06.631Z,10.96
2018-09-25T03:23:40.223Z,10.96
2018-09-25T03:26:14.141Z,10.94
2018-09-25T03:28:47.999Z,10.91
2018-09-25T03:31:21.718Z,10.90
2018-09-25T03:33:55.577Z,10.88
2018-09-25T03:36:29.371Z,10.87
2018-09-25T03:39:03.201Z,10.83
2018-09-25T03:41:36.812Z,10.79
2018-09-25T03:44:10.443Z,10.73
2018-09-25T03:46:44.195Z,10.67
2018-09-25T03:49:17.895Z,10.60
2018-09-25T03:51:51.834Z,10.59
2018-09-25T03:54:25.450Z,10.58
2018-09-25T03:56:59.151Z,10.58
2018-09-25T03:59:32.748Z,10.54
2018-09-25T04:02:06.402Z,10.53
2018-09-25T04:04:40.049Z,10.48
2018-09-25T04:07:13.867Z,10.47
2018-09-25T04:09:47.676Z,10.44
2018-09-25T04:12:21.239Z,9.69
2018-09-25T04:14:54.851Z,10.37
2018-09-25T04:17:28.519Z,10.35
2018-09-25T04:20:02.276Z,10.33
2018-09-25T04:22:35.925Z,10.28
2018-09-25T04:25:09.560Z,10.25
2018-09-25T04:27:43.270Z,10.21
2018-09-25T04:30:17.075Z,10.20
2018-09-25T04:32:50.920Z,10.18
2018-09-25T04:35:24.508Z,10.19
2018-09-25T04:37:58.312Z,10.17
2018-09-25T04:40:32.008Z,10.15
2018-09-25T04:43:08.619Z,10.08
2018-09-25T04:45:42.310Z,10.02
2018-09-25T04:48:16.109Z,9.99
2018-09-25T04:50:49.667Z,9.97
2018-09-25T04:53:23.225Z,9.93
2018-09-25T04:55:56.986Z,9.91
2018-09-25T04:58:30.643Z,9.90
2018-09-25T05:01:04.432Z,9.86
2018-09-25T05:03:38.214Z,9.81
2018-09-25T05:06:11.924Z,9.81
2018-09-25T05:08:45.602Z,9.79
2018-09-25T05:11:19.247Z,9.78
2018-09-25T05:13:53.004Z,9.79
2018-09-25T05:16:26.675Z,9.78
2018-09-25T05:19:00.156Z,9.81
2018-09-25T05:21:33.757Z,9.81
2018-09-25T05:24:07.440Z,9.83
2018-09-25T05:26:41.412Z,9.83
2018-09-25T05:29:14.958Z,9.85
2018-09-25T05:31:48.677Z,9.86
2018-09-25T05:34:22.274Z,9.89
2018-09-25T05:36:56.084Z,9.92
2018-09-25T05:39:29.953Z,9.95
2018-09-25T05:42:03.786Z,9.97
2018-09-25T05:44:37.608Z,9.99
2018-09-25T05:47:11.904Z,10.05
2018-09-25T05:49:45.526Z,10.07
2018-09-25T05:52:19.275Z,10.11
2018-09-25T05:54:53.243Z,10.12
2018-09-25T05:57:27.093Z,10.14
2018-09-25T06:00:00.704Z,10.18
2018-09-25T06:02:34.623Z,10.24
2018-09-25T06:05:08.198Z,10.30
2018-09-25T06:07:41.869Z,10.36
2018-09-25T06:10:15.565Z,10.45
2018-09-25T06:12:49.098Z,10.58
2018-09-25T06:15:22.820Z,10.70
2018-09-25T06:17:57.033Z,10.88
2018-09-25T06:20:30.891Z,11.29
2018-09-25T06:23:04.956Z,11.88
2018-09-25T06:25:38.609Z,12.37
2018-09-25T06:28:12.564Z,12.81
2018-09-25T06:30:46.255Z,13.28
2018-09-25T06:33:20.165Z,13.80
2018-09-25T06:35:54.006Z,14.42
2018-09-25T06:38:27.775Z,14.88
2018-09-25T06:41:01.595Z,15.40
2018-09-25T06:43:35.202Z,15.95
2018-09-25T06:46:08.938Z,16.51
2018-09-25T06:48:42.793Z,17.01
2018-09-25T06:51:16.394Z,17.42
2018-09-25T06:53:50.262Z,17.97
2018-09-25T06:56:23.839Z,18.53
2018-09-25T06:58:57.466Z,19.00
2018-09-25T07:01:31.396Z,19.48
2018-09-25T07:04:05.125Z,19.98
2018-09-25T07:06:38.820Z,20.36
2018-09-25T07:09:13.605Z,20.78
2018-09-25T07:11:47.514Z,21.18
2018-09-25T07:14:21.159Z,21.56
2018-09-25T07:16:54.921Z,22.05
2018-09-25T07:19:28.712Z,22.44
2018-09-25T07:22:02.388Z,22.83
2018-09-25T07:24:36.286Z,23.08
2018-09-25T07:27:10.085Z,23.39
2018-09-25T07:29:43.847Z,23.65
2018-09-25T07:32:17.541Z,24.09
2018-09-25T07:34:51.339Z,24.61
2018-09-25T07:37:25.279Z,25.07
2018-09-25T07:39:58.958Z,25.40
2018-09-25T07:42:32.877Z,25.73
2018-09-25T07:45:06.553Z,26.18
2018-09-25T07:47:40.302Z,26.54
2018-09-25T07:50:13.944Z,27.03
2018-09-25T07:52:47.806Z,27.40
2018-09-25T07:55:21.504Z,27.73
2018-09-25T07:57:55.095Z,28.08
2018-09-25T08:00:28.794Z,28.50
2018-09-25T08:03:02.519Z,28.89
2018-09-25T08:05:36.140Z,28.68
2018-09-25T08:08:09.965Z,29.71
2018-09-25T08:10:43.592Z,30.17
2018-09-25T08:13:17.401Z,30.58
2018-09-25T08:15:51.256Z,31.01
2018-09-25T08:18:24.906Z,31.47
2018-09-25T08:20:58.592Z,31.94
2018-09-25T08:23:33.480Z,32.34
2018-09-25T08:26:07.135Z,32.74
2018-09-25T08:28:41.518Z,33.19
2018-09-25T08:31:14.986Z,33.52
2018-09-25T08:33:49.324Z,33.73
2018-09-25T08:36:23.393Z,34.15
2018-09-25T08:38:57.863Z,34.65
2018-09-25T08:41:31.809Z,35.09
2018-09-25T08:44:05.814Z,35.50
2018-09-25T08:46:40.476Z,35.93
2018-09-25T08:49:14.751Z,36.34
2018-09-25T08:51:48.969Z,36.70
2018-09-25T08:54:26.897Z,37.01
2018-09-25T08:59:44.586Z,37.61
2018-09-25T09:02:18.623Z,37.85
2018-09-25T09:04:53.465Z,38.14
2018-09-25T09:07:28.036Z,38.49
2018-09-25T09:10:01.975Z,38.89
2018-09-25T09:12:36.785Z,39.03
2018-09-25T09:15:11.261Z,37.74
2018-09-25T09:17:45.255Z,35.77
2018-09-25T09:20:18.940Z,34.57
2018-09-25T09:22:53.120Z,35.02
2018-09-25T09:25:26.863Z,35.37
2018-09-25T09:28:00.739Z,36.05
2018-09-25T09:30:34.520Z,37.05
2018-09-25T09:33:08.249Z,38.07
2018-09-25T09:35:41.954Z,38.97
2018-09-25T09:38:15.889Z,39.72
2018-09-25T09:40:49.813Z,40.39
2018-09-25T09:43:23.674Z,41.08
2018-09-25T09:45:57.460Z,41.75
2018-09-25T09:48:31.562Z,42.20
2018-09-25T09:51:05.324Z,42.63
2018-09-25T09:53:39.312Z,43.02
2018-09-25T09:56:13.477Z,43.00
2018-09-25T09:58:47.272Z,43.15
2018-09-25T10:01:20.940Z,43.53
2018-09-25T10:03:54.675Z,44.01
2018-09-25T10:06:28.572Z,44.56
2018-09-25T10:09:03.151Z,45.19
2018-09-25T10:14:17.171Z,46.40
2018-09-25T10:16:52.005Z,46.79
2018-09-25T10:19:26.344Z,46.95
2018-09-25T10:22:00.647Z,45.79
2018-09-25T10:24:40.030Z,44.11
2018-09-25T10:27:14.671Z,41.77
2018-09-25T10:29:48.672Z,39.58
2018-09-25T10:32:23.155Z,37.74
2018-09-25T10:34:57.374Z,36.38
2018-09-25T10:37:31.433Z,35.21
2018-09-25T10:40:05.827Z,34.04
2018-09-25T10:42:40.069Z,33.05
2018-09-25T10:45:14.108Z,32.03
2018-09-25T10:47:48.551Z,31.22
2018-09-25T10:50:22.503Z,30.48
2018-09-25T10:52:56.701Z,30.65
2018-09-25T10:55:31.626Z,30.14
2018-09-25T10:58:05.728Z,29.65
2018-09-25T11:00:40.078Z,29.06
2018-09-25T11:03:14.066Z,28.71
2018-09-25T11:05:47.705Z,28.39
2018-09-25T11:08:21.925Z,28.09
2018-09-25T11:10:55.829Z,27.93
2018-09-25T11:13:29.575Z,27.81
2018-09-25T11:16:03.308Z,27.66
2018-09-25T11:18:37.048Z,27.79
2018-09-25T11:21:10.749Z,28.00
2018-09-25T11:23:44.594Z,28.13
2018-09-25T11:26:18.672Z,29.97
2018-09-25T11:28:52.782Z,32.07
2018-09-25T11:31:26.659Z,34.51
2018-09-25T11:34:00.595Z,35.00
2018-09-25T11:36:34.502Z,34.72
2018-09-25T11:39:08.551Z,36.21
2018-09-25T11:41:42.872Z,38.36
2018-09-25T11:44:16.899Z,39.84
2018-09-25T11:46:50.949Z,41.15
2018-09-25T11:49:24.940Z,41.36
2018-09-25T11:51:58.749Z,38.85
2018-09-25T11:54:32.651Z,36.27
2018-09-25T11:57:06.611Z,33.90
2018-09-25T11:59:40.537Z,32.23
2018-09-25T12:07:56.084Z,28.63
2018-09-25T12:10:29.970Z,27.97
2018-09-25T12:13:03.842Z,27.44
2018-09-25T12:15:38.021Z,27.07
2018-09-25T12:18:12.071Z,26.82
2018-09-25T12:20:46.273Z,26.60
2018-09-25T12:26:11.749Z,26.28
2018-09-25T12:28:45.800Z,26.05
2018-09-25T12:31:19.685Z,25.82
2018-09-25T12:33:53.633Z,25.71
2018-09-25T12:36:27.340Z,25.71
2018-09-25T12:39:01.011Z,25.76
2018-09-25T12:41:34.907Z,25.78
2018-09-25T12:44:08.765Z,25.77
2018-09-25T12:46:42.673Z,25.65
2018-09-25T12:49:16.353Z,25.47
2018-09-25T12:51:50.253Z,25.33
2018-09-25T12:54:24.096Z,25.23
2018-09-25T12:56:57.976Z,25.21
2018-09-25T12:59:31.755Z,25.16
2018-09-25T13:02:05.548Z,25.08
2018-09-25T13:04:39.244Z,25.07
2018-09-25T13:07:13.134Z,25.01
2018-09-25T13:09:47.003Z,24.79
2018-09-25T13:12:20.833Z,24.69
2018-09-25T13:14:54.590Z,24.46
2018-09-25T13:17:28.450Z,24.16
2018-09-25T13:20:02.234Z,23.97
2018-09-25T13:22:35.867Z,23.91
2018-09-25T13:25:09.725Z,23.86
2018-09-25T13:27:43.522Z,23.66
2018-09-25T13:30:17.537Z,23.01
2018-09-25T13:32:51.334Z,23.72
2018-09-25T13:35:24.872Z,23.78
2018-09-25T13:37:58.652Z,23.82
2018-09-25T13:40:32.157Z,23.64
2018-09-25T13:43:07.163Z,23.52
2018-09-25T13:45:41.095Z,23.32
2018-09-25T13:48:14.885Z,23.14
2018-09-25T13:50:48.535Z,22.96
2018-09-25T13:53:22.443Z,22.87
2018-09-25T13:55:56.172Z,22.75
2018-09-25T13:58:29.862Z,22.66
2018-09-25T14:01:03.667Z,22.65
2018-09-25T14:03:37.350Z,22.62
2018-09-25T14:06:11.231Z,22.59
2018-09-25T14:08:44.896Z,22.59
2018-09-25T14:11:18.734Z,22.53
2018-09-25T14:13:52.625Z,22.48
2018-09-25T14:16:26.344Z,22.46
2018-09-25T14:19:00.190Z,22.39
2018-09-25T14:21:33.801Z,22.37
2018-09-25T14:24:07.488Z,22.38
2018-09-25T14:26:41.162Z,22.38
2018-09-25T14:29:15.089Z,22.44
2018-09-25T14:31:48.999Z,22.57
2018-09-25T14:34:22.897Z,22.75
2018-09-25T14:36:56.654Z,22.95
2018-09-25T14:39:30.357Z,23.11
2018-09-25T14:42:04.241Z,23.29
2018-09-25T14:44:38.044Z,23.41
2018-09-25T14:47:11.709Z,23.52
2018-09-25T14:49:45.649Z,23.63
2018-09-25T14:52:19.526Z,23.65
2018-09-25T14:54:53.457Z,23.69
2018-09-25T14:57:27.219Z,23.69
2018-09-25T15:00:01.129Z,23.70
2018-09-25T15:02:34.855Z,23.69
2018-09-25T15:05:08.860Z,23.64
2018-09-25T15:07:43.259Z,23.58
2018-09-25T15:10:17.462Z,23.52
2018-09-25T15:12:51.584Z,23.50
2018-09-25T15:15:25.301Z,23.50
2018-09-25T15:17:59.338Z,23.46
2018-09-25T15:20:33.334Z,23.43
2018-09-25T15:23:07.111Z,23.33
2018-09-25T15:25:40.880Z,23.17
2018-09-25T15:28:14.781Z,23.01
2018-09-25T15:30:48.633Z,22.77
2018-09-25T15:33:22.519Z,22.37
2018-09-25T15:35:56.336Z,22.19
2018-09-25T15:38:30.102Z,21.99
2018-09-25T15:41:03.981Z,21.70
2018-09-25T15:43:37.773Z,21.40
2018-09-25T15:46:12.005Z,21.27
2018-09-25T15:48:46.021Z,21.11
2018-09-25T15:51:19.961Z,21.05
2018-09-25T15:53:53.862Z,21.00
2018-09-25T15:56:27.804Z,20.88
2018-09-25T15:59:01.719Z,20.73
2018-09-25T16:01:35.641Z,20.66
2018-09-25T16:04:09.434Z,20.49
2018-09-25T16:06:43.213Z,20.39
2018-09-25T16:09:16.974Z,20.26
2018-09-25T16:11:50.922Z,20.18
2018-09-25T16:14:24.736Z,20.11
2018-09-25T16:16:58.752Z,20.03
2018-09-25T16:19:32.672Z,19.99
2018-09-25T16:22:06.669Z,19.97
2018-09-25T16:24:40.846Z,19.89
2018-09-25T16:27:14.605Z,19.56
2018-09-25T16:29:48.672Z,19.84
2018-09-25T16:32:22.347Z,19.78
2018-09-25T16:34:56.357Z,19.69
2018-09-25T16:37:30.078Z,19.65
2018-09-25T16:40:03.909Z,19.61
2018-09-25T16:42:37.946Z,19.54
2018-09-25T16:45:11.596Z,19.52
2018-09-25T16:47:45.393Z,19.46
2018-09-25T16:50:19.242Z,19.39
2018-09-25T16:52:53.202Z,18.17
2018-09-25T16:55:27.051Z,19.19
2018-09-25T16:58:00.967Z,19.12
2018-09-25T17:00:34.751Z,19.06
2018-09-25T17:03:08.643Z,19.01
2018-09-25T17:05:42.546Z,18.95
2018-09-25T17:08:16.455Z,18.88
2018-09-25T17:10:50.271Z,18.79
2018-09-25T17:13:24.053Z,18.71
2018-09-25T17:15:57.750Z,18.64
2018-09-25T17:18:31.367Z,18.56
2018-09-25T17:21:05.266Z,18.48
2018-09-25T17:23:39.228Z,18.40
2018-09-25T17:26:12.968Z,18.31
2018-09-25T17:28:46.901Z,18.18
2018-09-25T17:31:20.838Z,18.08
2018-09-25T17:33:54.582Z,17.99
2018-09-25T17:36:28.467Z,17.88
2018-09-25T17:39:02.562Z,17.77
2018-09-25T17:41:36.471Z,17.67
2018-09-25T17:44:10.322Z,17.54
2018-09-25T17:46:43.969Z,17.46
2018-09-25T17:49:17.934Z,17.40
2018-09-25T17:51:51.829Z,17.31
2018-09-25T17:54:25.680Z,17.23
2018-09-25T17:56:59.414Z,17.18
2018-09-25T17:59:33.343Z,17.11
2018-09-25T18:02:07.104Z,17.06
2018-09-25T18:04:40.990Z,16.99
2018-09-25T18:07:14.773Z,16.92
2018-09-25T18:09:48.651Z,16.87
2018-09-25T18:12:22.460Z,16.79
2018-09-25T18:14:56.193Z,16.75
2018-09-25T18:17:29.748Z,16.71
2018-09-25T18:20:03.757Z,16.62
2018-09-25T18:22:38.833Z,16.57
2018-09-25T18:25:12.715Z,16.50
2018-09-25T18:27:46.499Z,16.43
2018-09-25T18:30:20.378Z,16.36
2018-09-25T18:32:54.012Z,16.28
2018-09-25T18:35:27.901Z,16.21
2018-09-25T18:38:01.633Z,16.15
2018-09-25T18:40:35.440Z,16.09
2018-09-25T18:43:09.304Z,16.05
2018-09-25T18:45:43.040Z,16.01
2018-09-25T18:48:16.645Z,15.95
2018-09-25T18:50:50.684Z,15.88
2018-09-25T18:53:24.369Z,15.85
2018-09-25T18:55:58.197Z,15.80
2018-09-25T18:58:31.944Z,15.74
2018-09-25T19:01:05.635Z,15.71
2018-09-25T19:03:39.272Z,15.66
2018-09-25T19:06:13.211Z,15.61
2018-09-25T19:08:47.072Z,15.57
2018-09-25T19:11:20.877Z,15.54
2018-09-25T19:13:54.584Z,15.49
2018-09-25T19:16:28.536Z,15.45
2018-09-25T19:19:02.445Z,15.39
2018-09-25T19:21:37.101Z,15.37
2018-09-25T19:24:10.751Z,15.30
2018-09-25T19:26:44.485Z,15.28
2018-09-25T19:29:18.367Z,15.20
2018-09-25T19:31:52.180Z,15.14
2018-09-25T19:34:25.864Z,15.13
2018-09-25T19:36:59.648Z,15.09
2018-09-25T19:39:33.426Z,15.06
2018-09-25T19:42:07.188Z,15.04
2018-09-25T19:44:41.081Z,14.97
2018-09-25T19:47:14.917Z,14.94
2018-09-25T19:49:50.947Z,14.88
2018-09-25T19:52:24.893Z,14.83
2018-09-25T19:54:58.882Z,14.78
2018-09-25T19:57:32.506Z,14.74
2018-09-25T20:00:06.512Z,14.68
2018-09-25T20:02:40.354Z,14.65
2018-09-25T20:05:14.161Z,14.61
2018-09-25T20:07:49.329Z,14.57
2018-09-25T20:10:23.280Z,14.55
2018-09-25T20:12:57.311Z,14.51
2018-09-25T20:15:31.198Z,14.50
2018-09-25T20:18:04.905Z,14.47
2018-09-25T20:20:38.562Z,13.67
2018-09-25T20:23:12.215Z,14.42
2018-09-25T20:25:45.921Z,14.38
2018-09-25T20:28:19.739Z,14.38
2018-09-25T20:30:53.575Z,14.33
2018-09-25T20:33:27.360Z,14.31
2018-09-25T20:36:01.175Z,14.29
2018-09-25T20:38:34.832Z,14.24
2018-09-25T20:41:08.719Z,14.19
2018-09-25T20:43:42.408Z,14.13
2018-09-25T20:46:16.195Z,14.10
2018-09-25T20:48:50.005Z,14.06
2018-09-25T20:51:23.735Z,14.02
2018-09-25T20:53:57.637Z,14.01
2018-09-25T20:56:31.357Z,13.99
2018-09-25T20:59:05.254Z,13.98
2018-09-25T21:01:39.030Z,13.94
2018-09-25T21:04:12.885Z,13.94
2018-09-25T21:06:46.473Z,13.90
2018-09-25T21:09:20.188Z,13.87
2018-09-25T21:11:53.885Z,13.87
2018-09-25T21:14:27.574Z,13.84
2018-09-25T21:17:01.371Z,13.83
2018-09-25T21:19:34.969Z,13.78
2018-09-25T21:22:08.820Z,13.75
2018-09-25T21:24:42.656Z,13.73
2018-09-25T21:27:16.352Z,13.70
2018-09-25T21:29:50.008Z,13.68
2018-09-25T21:32:23.783Z,13.66
2018-09-25T21:34:57.613Z,13.60
2018-09-25T21:37:31.268Z,13.57
2018-09-25T21:40:05.048Z,13.54
2018-09-25T21:42:38.675Z,13.51
2018-09-25T21:45:12.600Z,13.44
2018-09-25T21:47:46.236Z,13.39
2018-09-25T21:50:19.761Z,13.35
2018-09-25T21:52:53.424Z,13.32
2018-09-25T21:55:27.075Z,13.29
2018-09-25T21:58:00.800Z,13.28
2018-09-25T22:00:34.887Z,13.28
2018-09-25T22:03:08.576Z,13.28
2018-09-25T22:05:42.406Z,13.25
2018-09-25T22:08:16.172Z,13.23
2018-09-25T22:10:49.857Z,13.20
2018-09-25T22:13:23.612Z,13.19
2018-09-25T22:15:57.272Z,13.16
2018-09-25T22:18:31.015Z,13.13
2018-09-25T22:21:04.747Z,13.11
2018-09-25T22:23:38.492Z,13.08
2018-09-25T22:26:12.164Z,13.08
2018-09-25T22:28:45.909Z,13.06
2018-09-25T22:31:20.621Z,13.04
2018-09-25T22:33:54.191Z,13.02
2018-09-25T22:36:27.986Z,13.00
2018-09-25T22:39:01.676Z,12.98
2018-09-25T22:41:35.336Z,12.90
2018-09-25T22:44:09.570Z,12.87
2018-09-25T22:46:43.387Z,12.82
2018-09-25T22:49:17.104Z,12.80
2018-09-25T22:51:50.895Z,12.80
2018-09-25T22:54:24.621Z,12.81
2018-09-25T22:56:58.481Z,12.78
2018-09-25T22:59:32.193Z,12.76
2018-09-25T23:02:05.731Z,12.73
2018-09-25T23:04:39.503Z,12.71
2018-09-25T23:07:13.365Z,12.68
2018-09-25T23:09:47.100Z,12.64
2018-09-25T23:12:20.813Z,12.62
2018-09-25T23:14:54.734Z,12.59
2018-09-25T23:17:28.522Z,12.59
2018-09-25T23:20:02.393Z,12.56
2018-09-25T23:22:36.180Z,12.56
2018-09-25T23:25:09.940Z,12.55
2018-09-25T23:27:43.726Z,12.54
2018-09-25T23:30:17.704Z,12.54
2018-09-25T23:32:51.562Z,12.54
2018-09-25T23:35:25.400Z,12.53
2018-09-25T23:37:59.137Z,12.52
2018-09-25T23:40:32.937Z,12.52
2018-09-25T23:43:06.580Z,12.50
2018-09-25T23:45:46.613Z,12.47
2018-09-25T23:48:20.235Z,12.41
2018-09-25T23:50:58.020Z,12.38
2018-09-25T23:53:31.979Z,12.35
2018-09-25T23:56:05.845Z,12.34
2018-09-25T23:58:39.709Z,12.32
